Time;durP1;ratioP1;P1;durP2;ratioP2;P2;SDS_P1;SDS_P2;PMS_P1;PMS_P2;Temp;Humidity;BMP_temperature;BMP_pressure;BME280_temperature;BME280_humidity;BME280_pressure;Samples;Min_cycle;Max_cycle;Signal;HPM_P1;HPM_P2
2023/01/04 00:01:15;;;;;;;13.30;4.05;;;7.70;99.90;;;;;;6152477;23;20017;-81
2023/01/04 00:03:41;;;;;;;13.95;5.10;;;7.70;99.90;;;;;;6151928;23;20014;-81
2023/01/04 00:06:09;;;;;;;14.65;4.60;;;7.80;99.90;;;;;;6154501;23;20463;-81
2023/01/04 00:08:34;;;;;;;14.32;4.70;;;7.70;99.90;;;;;;6152407;23;20060;-80
2023/01/04 00:11:10;;;;;;;12.07;4.45;;;7.80;99.90;;;;;;6154485;23;20013;-81
2023/01/04 00:13:36;;;;;;;13.50;4.50;;;7.80;99.90;;;;;;6152230;23;20048;-80
2023/01/04 00:16:22;;;;;;;11.10;4.60;;;7.80;99.90;;;;;;6152169;23;20013;-82
2023/01/04 00:18:48;;;;;;;12.20;4.68;;;7.80;99.90;;;;;;6153673;23;20088;-81
2023/01/04 00:21:23;;;;;;;12.18;4.53;;;7.80;99.90;;;;;;6154284;23;20009;-80
2023/01/04 00:23:51;;;;;;;11.77;4.50;;;7.80;99.90;;;;;;6127652;23;20017;-81
2023/01/04 00:26:19;;;;;;;13.85;5.05;;;7.80;99.90;;;;;;6154071;23;20085;-80
2023/01/04 00:28:45;;;;;;;13.88;4.80;;;7.90;99.90;;;;;;6154061;23;20013;-81
2023/01/04 00:31:12;;;;;;;13.15;4.60;;;7.90;99.90;;;;;;6152598;23;20023;-81
2023/01/04 00:33:38;;;;;;;12.35;4.93;;;7.90;99.90;;;;;;6151623;23;20021;-81
2023/01/04 00:36:12;;;;;;;11.70;4.70;;;7.90;99.90;;;;;;6154330;23;20013;-80
2023/01/04 00:38:39;;;;;;;9.48;4.88;;;7.90;99.90;;;;;;6127511;23;20005;-81
2023/01/04 00:41:06;;;;;;;12.65;4.95;;;7.90;99.90;;;;;;6152210;23;20089;-80
2023/01/04 00:43:32;;;;;;;13.55;4.97;;;7.90;99.90;;;;;;6152001;23;20325;-81
2023/01/04 00:45:58;;;;;;;10.77;4.80;;;7.90;99.90;;;;;;6152222;23;20091;-81
2023/01/04 00:48:24;;;;;;;13.10;5.57;;;7.90;99.90;;;;;;6153249;23;20472;-80
2023/01/04 00:50:50;;;;;;;13.52;5.18;;;7.90;99.90;;;;;;6127880;23;20227;-81
2023/01/04 00:53:16;;;;;;;13.88;5.07;;;7.80;99.90;;;;;;6153923;23;20041;-80
2023/01/04 00:55:42;;;;;;;12.32;5.07;;;7.80;99.90;;;;;;6151924;23;20014;-81
2023/01/04 00:58:08;;;;;;;16.25;5.97;;;7.80;99.90;;;;;;6153819;23;20141;-80
2023/01/04 01:00:34;;;;;;;15.55;5.40;;;7.80;99.90;;;;;;6152131;23;20013;-81
2023/01/04 01:03:00;;;;;;;13.85;6.15;;;7.70;99.90;;;;;;6153282;23;20084;-81
2023/01/04 01:05:26;;;;;;;12.35;5.90;;;7.70;99.90;;;;;;6152305;23;20024;-80
2023/01/04 01:07:52;;;;;;;13.45;5.95;;;7.70;99.90;;;;;;6152043;23;20068;-81
2023/01/04 01:10:18;;;;;;;15.13;6.10;;;7.70;99.90;;;;;;6153330;23;20337;-80
2023/01/04 01:12:43;;;;;;;13.52;5.93;;;7.70;99.90;;;;;;6153387;23;20054;-80
2023/01/04 01:15:10;;;;;;;11.63;5.10;;;7.70;99.90;;;;;;6151915;23;20018;-80
2023/01/04 01:17:35;;;;;;;13.55;5.60;;;7.70;99.90;;;;;;6153657;23;20010;-81
2023/01/04 01:20:03;;;;;;;10.75;5.60;;;7.70;99.90;;;;;;6151830;23;20348;-80
2023/01/04 01:22:29;;;;;;;11.68;5.45;;;7.70;99.90;;;;;;6152143;23;20009;-81
2023/01/04 01:24:55;;;;;;;11.95;5.70;;;7.70;99.90;;;;;;6153392;23;20010;-81
2023/01/04 01:27:20;;;;;;;11.32;5.55;;;7.70;99.90;;;;;;6153689;23;20005;-81
2023/01/04 01:29:46;;;;;;;11.73;5.40;;;7.70;99.90;;;;;;6152614;23;20013;-81
2023/01/04 01:32:12;;;;;;;15.05;5.93;;;7.80;99.90;;;;;;6151687;23;20010;-81
2023/01/04 01:34:37;;;;;;;10.93;5.22;;;7.70;99.90;;;;;;6151623;23;20013;-81
2023/01/04 01:37:03;;;;;;;17.48;5.70;;;7.80;99.90;;;;;;6151627;23;20096;-81
2023/01/04 01:39:28;;;;;;;11.10;5.50;;;7.70;99.90;;;;;;6153622;23;20005;-80
2023/01/04 01:41:54;;;;;;;15.05;6.05;;;7.70;99.90;;;;;;6153221;23;20014;-80
2023/01/04 01:44:42;;;;;;;11.93;5.65;;;7.80;99.90;;;;;;6151020;23;20129;-80
2023/01/04 01:47:11;;;;;;;11.77;5.50;;;7.80;99.90;;;;;;6151549;23;20052;-79
2023/01/04 01:49:38;;;;;;;12.70;6.05;;;7.80;99.90;;;;;;6153162;23;20014;-83
2023/01/04 01:52:08;;;;;;;15.60;5.50;;;7.80;99.90;;;;;;6151354;23;20013;-80
2023/01/04 01:54:56;;;;;;;11.65;5.90;;;7.80;99.90;;;;;;6153009;23;20442;-79
2023/01/04 01:57:26;;;;;;;11.80;5.90;;;7.80;99.90;;;;;;6153162;23;20063;-80
2023/01/04 01:59:55;;;;;;;11.02;6.10;;;7.80;99.90;;;;;;6151234;23;20345;-80
2023/01/04 02:02:21;;;;;;;10.73;5.90;;;7.80;99.90;;;;;;6151525;23;20350;-79
2023/01/04 02:04:49;;;;;;;11.45;5.78;;;7.90;99.90;;;;;;6151635;23;20016;-80
2023/01/04 02:07:19;;;;;;;11.88;6.07;;;7.80;99.90;;;;;;6151470;23;20009;-78
2023/01/04 02:09:48;;;;;;;10.65;5.88;;;7.80;99.90;;;;;;6153031;23;20020;-80
2023/01/04 02:12:13;;;;;;;9.48;6.35;;;7.80;99.90;;;;;;6151182;23;20049;-80
2023/01/04 02:14:44;;;;;;;11.57;6.22;;;8.10;99.90;;;;;;6150882;23;20425;-79
2023/01/04 02:17:15;;;;;;;9.38;6.13;;;7.90;99.90;;;;;;6153213;23;20016;-79
2023/01/04 02:20:09;;;;;;;13.60;6.38;;;7.80;99.90;;;;;;6151757;23;20144;-79
2023/01/04 02:22:49;;;;;;;12.40;6.47;;;7.80;99.90;;;;;;6153585;23;20317;-79
2023/01/04 02:25:58;;;;;;;12.35;6.65;;;7.80;99.90;;;;;;6153659;23;20017;-79
2023/01/04 02:29:05;;;;;;;10.70;5.97;;;7.90;99.90;;;;;;6154813;23;20101;-78
2023/01/04 02:31:52;;;;;;;10.00;5.45;;;7.90;99.90;;;;;;6146427;23;20096;-78
2023/01/04 02:34:25;;;;;;;8.40;5.20;;;7.90;99.90;;;;;;6153204;23;20518;-79
2023/01/04 02:37:04;;;;;;;9.27;5.30;;;7.90;99.90;;;;;;6153308;23;20456;-79
2023/01/04 02:39:29;;;;;;;10.52;5.35;;;7.90;99.90;;;;;;6155305;23;20014;-79
2023/01/04 02:42:16;;;;;;;9.00;5.53;;;7.90;99.90;;;;;;6155342;23;20057;-79
2023/01/04 02:44:52;;;;;;;8.25;5.38;;;7.90;99.90;;;;;;6153531;23;20262;-79
2023/01/04 02:50:32;;;;;;;12.25;4.97;;;8.00;99.90;;;;;;6153152;23;20020;-79
2023/01/04 02:53:11;;;;;;;7.18;4.78;;;8.10;99.90;;;;;;6153517;23;20068;-79
2023/01/04 02:55:42;;;;;;;7.22;5.00;;;8.00;99.90;;;;;;6153139;23;20025;-79
2023/01/04 02:58:27;;;;;;;7.72;4.75;;;8.00;99.90;;;;;;6154616;23;20009;-80
2023/01/04 03:07:43;;;;;;;8.57;4.53;;;8.10;99.90;;;;;;6148840;23;20409;-80
2023/01/04 03:10:19;;;;;;;9.13;4.80;;;8.10;99.90;;;;;;6153177;23;20021;-80
2023/01/04 03:12:56;;;;;;;8.02;4.43;;;8.10;99.90;;;;;;6152529;23;20100;-79
2023/01/04 03:15:27;;;;;;;6.75;4.15;;;8.10;99.90;;;;;;6152736;23;20022;-80
2023/01/04 03:18:19;;;;;;;8.02;4.30;;;8.20;99.90;;;;;;6154846;23;20015;-80
2023/01/04 03:20:47;;;;;;;8.82;4.22;;;8.20;99.90;;;;;;6153264;23;20012;-80
2023/01/04 03:37:46;;;;;;;6.15;3.83;;;8.60;99.90;;;;;;6152439;23;20463;-80
2023/01/04 03:49:03;;;;;;;5.07;3.28;;;8.50;99.90;;;;;;6152467;23;19913;-80
2023/01/04 03:51:32;;;;;;;5.13;3.30;;;8.60;99.90;;;;;;6127986;23;20013;-80
2023/01/04 03:54:14;;;;;;;4.55;3.55;;;8.60;99.90;;;;;;6152688;23;20014;-80
2023/01/04 03:56:42;;;;;;;4.30;3.17;;;8.70;99.90;;;;;;6152751;23;20313;-80
2023/01/04 03:59:10;;;;;;;5.63;3.90;;;8.80;99.90;;;;;;6152592;23;20072;-80
2023/01/04 04:01:36;;;;;;;6.60;3.92;;;8.80;99.90;;;;;;6152638;23;20006;-80
2023/01/04 04:09:31;;;;;;;5.07;3.80;;;8.90;99.90;;;;;;6153605;23;20057;-79
2023/01/04 04:11:57;;;;;;;5.25;3.63;;;8.90;99.90;;;;;;6152112;23;20024;-79
2023/01/04 04:14:22;;;;;;;6.10;3.95;;;9.20;99.90;;;;;;6127436;23;20021;-79
2023/01/04 04:16:48;;;;;;;6.13;3.85;;;9.00;99.90;;;;;;6153893;23;20020;-79
2023/01/04 04:19:14;;;;;;;3.95;3.28;;;9.00;99.90;;;;;;6152577;23;20064;-80
2023/01/04 04:21:40;;;;;;;5.93;3.17;;;9.10;99.90;;;;;;6153965;23;20273;-79
2023/01/04 04:24:05;;;;;;;4.05;3.40;;;9.10;99.90;;;;;;6151964;23;20013;-79
2023/01/04 04:26:32;;;;;;;6.95;3.53;;;9.10;99.90;;;;;;6152002;23;20431;-79
2023/01/04 04:28:57;;;;;;;4.72;4.07;;;9.10;99.90;;;;;;6154174;23;20177;-79
2023/01/04 04:31:23;;;;;;;5.43;4.00;;;9.20;99.90;;;;;;6152047;23;20397;-80
2023/01/04 04:33:49;;;;;;;4.95;3.70;;;9.20;99.90;;;;;;6151916;23;20093;-79
2023/01/04 04:36:14;;;;;;;5.15;3.90;;;9.30;99.90;;;;;;6152041;23;20089;-79
2023/01/04 04:38:40;;;;;;;5.20;4.38;;;9.30;99.90;;;;;;6151816;23;20010;-80
2023/01/04 04:43:53;;;;;;;4.90;4.05;;;9.40;99.90;;;;;;6154067;23;20017;-80
2023/01/04 04:46:19;;;;;;;5.05;4.20;;;9.40;99.90;;;;;;6152075;23;20009;-80
2023/01/04 04:48:45;;;;;;;5.55;4.68;;;9.50;99.90;;;;;;6151863;23;20090;-80
2023/01/04 04:51:10;;;;;;;5.53;4.45;;;9.50;99.90;;;;;;6153782;23;20009;-80
2023/01/04 04:53:36;;;;;;;5.28;4.70;;;9.50;99.90;;;;;;6151548;23;20093;-81
2023/01/04 04:56:01;;;;;;;5.97;4.53;;;9.50;99.90;;;;;;6152213;23;20013;-81
2023/01/04 04:58:27;;;;;;;5.50;4.80;;;9.50;99.90;;;;;;6151865;23;20056;-80
2023/01/04 05:00:53;;;;;;;5.82;4.55;;;9.60;99.90;;;;;;6151955;23;20380;-81
2023/01/04 05:03:18;;;;;;;6.15;4.60;;;9.70;99.90;;;;;;6127253;23;20340;-81
2023/01/04 05:05:44;;;;;;;5.07;4.50;;;9.70;99.90;;;;;;6151640;23;20010;-80
2023/01/04 05:08:09;;;;;;;5.22;4.57;;;9.70;99.90;;;;;;6151661;23;20099;-81
2023/01/04 05:10:37;;;;;;;5.10;4.60;;;9.80;99.90;;;;;;6151792;23;20084;-80
2023/01/04 05:13:04;;;;;;;5.65;5.05;;;9.70;99.90;;;;;;6151390;23;20029;-81
2023/01/04 05:15:42;;;;;;;5.70;5.10;;;9.70;99.90;;;;;;6151589;23;20024;-80
2023/01/04 05:18:09;;;;;;;8.02;5.60;;;9.80;99.90;;;;;;6127111;23;20032;-79
2023/01/04 05:20:35;;;;;;;8.05;5.35;;;9.80;99.90;;;;;;6127130;23;20379;-80
2023/01/04 05:23:01;;;;;;;8.50;5.80;;;9.90;99.90;;;;;;6150913;23;20092;-80
2023/01/04 05:25:26;;;;;;;7.90;5.80;;;9.90;99.90;;;;;;6153052;23;20040;-79
2023/01/04 05:27:52;;;;;;;6.18;5.57;;;9.90;99.90;;;;;;6153687;23;20021;-79
2023/01/04 05:33:04;;;;;;;6.45;5.40;;;10.00;99.90;;;;;;6153605;23;20025;-80
2023/01/04 05:35:30;;;;;;;6.28;5.13;;;10.00;99.90;;;;;;6153304;23;20325;-80
2023/01/04 05:37:56;;;;;;;6.22;5.20;;;10.00;99.90;;;;;;6152442;23;20005;-79
2023/01/04 05:40:22;;;;;;;6.22;5.43;;;10.00;99.90;;;;;;6126972;23;20096;-80
2023/01/04 05:42:48;;;;;;;7.88;5.18;;;10.10;99.90;;;;;;6151624;23;20314;-80
2023/01/04 05:45:15;;;;;;;9.60;5.65;;;10.10;99.90;;;;;;6153165;23;20349;-79
2023/01/04 05:47:41;;;;;;;8.68;6.18;;;10.10;99.90;;;;;;6151317;23;20314;-80
2023/01/04 05:50:08;;;;;;;12.52;6.18;;;10.10;99.90;;;;;;6151840;23;20014;-80
2023/01/04 05:52:34;;;;;;;10.32;5.80;;;10.10;99.90;;;;;;6152442;23;20005;-79
2023/01/04 05:54:59;;;;;;;10.90;6.22;;;10.10;99.90;;;;;;6153021;23;20084;-79
2023/01/04 05:57:25;;;;;;;9.50;6.15;;;10.10;99.90;;;;;;6150870;23;20429;-79
2023/01/04 05:59:51;;;;;;;9.32;5.60;;;10.20;99.90;;;;;;6126693;23;20271;-79
2023/01/04 06:02:20;;;;;;;7.97;5.95;;;10.10;99.90;;;;;;6126581;23;20056;-78
2023/01/04 06:04:46;;;;;;;6.10;5.20;;;10.10;99.90;;;;;;6153043;23;20119;-79
2023/01/04 06:07:12;;;;;;;11.45;6.57;;;10.10;99.90;;;;;;6150571;23;20445;-79
2023/01/04 06:09:37;;;;;;;6.10;5.45;;;10.10;99.90;;;;;;6150983;23;20015;-79
2023/01/04 06:12:03;;;;;;;8.68;6.50;;;10.20;99.90;;;;;;6151299;23;20025;-79
2023/01/04 06:14:29;;;;;;;12.18;6.95;;;10.20;99.90;;;;;;6151205;23;20344;-78
2023/01/04 06:16:54;;;;;;;7.57;5.25;;;10.20;99.90;;;;;;6153241;23;20021;-79
2023/01/04 06:19:20;;;;;;;10.13;6.55;;;10.20;99.90;;;;;;6153363;23;20009;-78
2023/01/04 06:21:45;;;;;;;9.95;6.00;;;10.20;99.90;;;;;;6152609;23;20009;-78
2023/01/04 06:24:11;;;;;;;8.85;6.55;;;10.20;99.90;;;;;;6126526;23;20056;-78
2023/01/04 06:26:37;;;;;;;11.80;6.38;;;10.20;99.90;;;;;;6151133;23;20260;-78
2023/01/04 06:29:03;;;;;;;8.45;6.30;;;10.20;99.90;;;;;;6153268;23;20020;-79
2023/01/04 06:31:29;;;;;;;8.70;5.88;;;10.20;99.90;;;;;;6153145;23;20017;-79
2023/01/04 06:33:55;;;;;;;8.85;6.57;;;10.20;99.90;;;;;;6150974;23;20318;-78
2023/01/04 06:36:21;;;;;;;9.75;6.80;;;10.20;99.90;;;;;;6126016;23;20546;-78
2023/01/04 06:38:47;;;;;;;8.63;6.25;;;10.20;99.90;;;;;;6150967;23;20016;-78
2023/01/04 06:41:13;;;;;;;6.93;5.13;;;10.30;99.90;;;;;;6126525;23;20009;-78
2023/01/04 06:43:39;;;;;;;6.95;5.22;;;10.20;99.90;;;;;;6153286;23;20016;-78
2023/01/04 06:46:04;;;;;;;7.03;4.40;;;10.40;99.90;;;;;;6151154;23;20104;-78
2023/01/04 06:48:30;;;;;;;7.13;4.00;;;10.30;99.90;;;;;;6153149;23;20060;-78
2023/01/04 06:50:56;;;;;;;5.90;4.53;;;10.30;99.90;;;;;;6150985;23;20013;-79
2023/01/04 06:53:21;;;;;;;5.20;3.42;;;10.30;99.90;;;;;;6153051;23;20437;-79
2023/01/04 06:55:47;;;;;;;6.65;3.85;;;10.30;99.90;;;;;;6152989;23;20021;-79
2023/01/04 06:58:12;;;;;;;8.35;4.40;;;10.30;99.90;;;;;;6151220;23;20093;-79
2023/01/04 07:00:38;;;;;;;5.55;3.53;;;10.40;99.90;;;;;;6126646;23;20033;-78
2023/01/04 07:03:04;;;;;;;4.53;3.80;;;10.40;99.90;;;;;;6149719;23;20021;-79
2023/01/04 07:05:29;;;;;;;8.50;3.85;;;10.50;99.90;;;;;;6151669;23;20377;-80
2023/01/04 07:07:57;;;;;;;4.18;3.42;;;10.30;99.90;;;;;;6153028;23;20032;-79
2023/01/04 07:10:23;;;;;;;6.60;3.97;;;10.40;99.90;;;;;;6152299;23;20016;-79
2023/01/04 07:12:49;;;;;;;6.50;4.03;;;10.40;99.90;;;;;;6126918;23;20096;-79
2023/01/04 07:15:14;;;;;;;4.85;3.70;;;10.40;99.90;;;;;;6154686;23;20024;-80
2023/01/04 07:17:40;;;;;;;5.35;3.60;;;10.40;99.90;;;;;;6154190;23;20006;-76
2023/01/04 07:20:06;;;;;;;5.18;3.20;;;10.40;99.90;;;;;;6152781;23;20005;-78
2023/01/04 07:22:31;;;;;;;4.30;3.08;;;10.40;99.90;;;;;;6154889;23;20440;-79
2023/01/04 07:24:57;;;;;;;4.60;3.35;;;10.50;99.90;;;;;;6154299;23;20006;-79
2023/01/04 07:27:22;;;;;;;6.68;4.00;;;10.40;99.90;;;;;;6153017;23;20013;-79
2023/01/04 07:29:48;;;;;;;5.82;4.05;;;10.40;99.90;;;;;;6128410;23;20100;-79
2023/01/04 07:32:14;;;;;;;8.70;4.18;;;10.40;99.90;;;;;;6127478;23;20021;-80
2023/01/04 07:34:40;;;;;;;4.88;4.25;;;10.50;99.90;;;;;;6152515;23;20021;-80
2023/01/04 07:37:08;;;;;;;5.43;4.20;;;10.50;99.90;;;;;;6152237;23;20459;-80
2023/01/04 07:39:33;;;;;;;6.63;4.75;;;10.50;99.90;;;;;;6153671;23;20017;-80
2023/01/04 07:41:59;;;;;;;5.85;3.38;;;10.50;99.90;;;;;;6152150;23;20014;-80
2023/01/04 07:44:26;;;;;;;5.05;3.20;;;10.50;99.90;;;;;;6152268;23;20010;-80
2023/01/04 07:46:52;;;;;;;5.80;3.55;;;10.50;99.90;;;;;;6151517;23;20017;-80
2023/01/04 07:49:18;;;;;;;4.35;3.25;;;10.50;99.90;;;;;;6152149;23;20376;-80
2023/01/04 07:51:48;;;;;;;5.88;3.33;;;10.50;99.90;;;;;;6152112;23;20084;-79
2023/01/04 07:54:15;;;;;;;5.55;3.40;;;10.50;99.90;;;;;;6152077;23;20040;-79
2023/01/04 07:56:41;;;;;;;4.28;3.33;;;10.50;99.90;;;;;;6153461;23;20420;-80
2023/01/04 07:59:08;;;;;;;10.13;3.42;;;10.60;99.90;;;;;;6152039;23;20017;-79
2023/01/04 08:01:36;;;;;;;4.70;3.33;;;10.60;99.90;;;;;;6151319;23;20025;-80
2023/01/04 08:04:03;;;;;;;4.85;3.75;;;10.50;99.90;;;;;;6152057;23;20313;-78
2023/01/04 08:06:29;;;;;;;7.13;4.13;;;10.50;99.90;;;;;;6151933;23;20013;-79
2023/01/04 08:08:54;;;;;;;5.68;3.53;;;10.50;99.90;;;;;;6153588;23;20376;-78
2023/01/04 08:11:23;;;;;;;8.05;3.85;;;10.60;99.90;;;;;;6151741;23;20084;-79
2023/01/04 08:13:49;;;;;;;5.97;3.60;;;10.50;99.90;;;;;;6153477;23;20159;-79
2023/01/04 08:16:30;;;;;;;7.10;3.60;;;10.60;99.90;;;;;;6153255;23;20005;-79
2023/01/04 08:19:17;;;;;;;7.50;3.40;;;10.60;99.90;;;;;;6152243;23;20250;-79
2023/01/04 08:21:43;;;;;;;4.97;2.92;;;10.60;99.90;;;;;;6126092;23;20017;-79
2023/01/04 08:24:11;;;;;;;5.78;3.28;;;10.60;99.90;;;;;;6153819;23;20152;-79
2023/01/04 08:26:37;;;;;;;11.43;4.38;;;10.60;99.90;;;;;;6153774;23;20126;-79
2023/01/04 08:29:03;;;;;;;6.38;3.88;;;10.60;99.90;;;;;;6150486;23;20481;-79
2023/01/04 08:31:31;;;;;;;4.88;3.50;;;10.60;99.90;;;;;;6149139;23;20092;-79
2023/01/04 08:33:58;;;;;;;7.10;4.07;;;10.60;99.90;;;;;;6149290;23;20013;-79
2023/01/04 08:36:29;;;;;;;5.80;4.18;;;10.60;99.90;;;;;;6153512;23;20184;-79
2023/01/04 08:38:57;;;;;;;6.38;4.60;;;10.60;99.90;;;;;;6126992;23;20016;-79
2023/01/04 08:41:23;;;;;;;5.63;4.25;;;10.70;99.90;;;;;;6151190;23;20014;-79
2023/01/04 08:43:48;;;;;;;8.13;4.90;;;10.70;99.90;;;;;;6153117;23;20032;-79
2023/01/04 08:46:14;;;;;;;7.78;5.22;;;10.70;99.90;;;;;;6152835;23;20091;-79
2023/01/04 08:48:40;;;;;;;8.95;5.82;;;10.70;99.90;;;;;;6151767;23;20013;-80
2023/01/04 08:51:09;;;;;;;7.28;5.40;;;10.60;99.90;;;;;;6151541;23;20009;-80
2023/01/04 08:53:35;;;;;;;6.57;4.50;;;10.60;99.90;;;;;;6153361;23;20348;-80
2023/01/04 08:56:01;;;;;;;7.38;5.68;;;10.70;99.90;;;;;;6151235;23;20086;-78
2023/01/04 08:58:28;;;;;;;8.77;5.63;;;10.70;99.90;;;;;;6153262;23;20433;-80
2023/01/04 09:01:03;;;;;;;6.63;5.25;;;10.70;99.90;;;;;;6152814;23;20085;-79
2023/01/04 09:03:29;;;;;;;6.50;4.95;;;10.70;99.90;;;;;;6153621;23;20013;-79
2023/01/04 09:06:06;;;;;;;6.60;4.68;;;10.70;99.90;;;;;;6151485;23;20056;-79
2023/01/04 09:08:33;;;;;;;9.43;5.50;;;10.70;99.90;;;;;;6151733;23;20028;-79
2023/01/04 09:11:04;;;;;;;8.05;5.30;;;10.90;99.90;;;;;;6153260;23;20037;-79
2023/01/04 09:13:29;;;;;;;8.18;5.15;;;10.80;99.90;;;;;;6152754;23;20101;-79
2023/01/04 09:16:02;;;;;;;10.68;4.50;;;10.80;99.90;;;;;;6150682;23;20117;-78
2023/01/04 09:18:28;;;;;;;5.65;3.97;;;10.90;99.90;;;;;;6153570;23;20074;-79
2023/01/04 09:20:54;;;;;;;6.07;4.57;;;10.80;99.90;;;;;;6151368;23;20009;-79
2023/01/04 09:23:20;;;;;;;5.35;3.78;;;10.90;99.90;;;;;;6151447;23;20332;-78
2023/01/04 09:25:46;;;;;;;4.70;3.53;;;11.00;99.90;;;;;;6153264;23;20005;-79
2023/01/04 09:28:11;;;;;;;4.15;3.22;;;10.80;99.90;;;;;;6150700;23;20076;-79
2023/01/04 09:30:37;;;;;;;4.38;3.20;;;10.90;99.90;;;;;;6153231;23;20009;-79
2023/01/04 09:33:03;;;;;;;4.30;3.10;;;10.90;99.90;;;;;;6126556;23;20020;-79
2023/01/04 09:35:28;;;;;;;3.83;3.00;;;10.90;99.90;;;;;;6150989;23;20409;-79
2023/01/04 09:37:54;;;;;;;4.25;2.80;;;10.90;99.90;;;;;;6150919;23;20025;-79
2023/01/04 09:40:26;;;;;;;4.50;2.60;;;10.90;99.90;;;;;;6151251;23;20013;-79
2023/01/04 09:42:53;;;;;;;4.80;2.67;;;10.90;99.90;;;;;;6150670;23;20013;-80
2023/01/04 09:45:26;;;;;;;4.65;2.40;;;11.00;99.90;;;;;;6152759;23;20447;-80
2023/01/04 09:48:12;;;;;;;4.82;2.67;;;11.00;99.90;;;;;;6126520;23;20186;-80
2023/01/04 09:50:58;;;;;;;6.30;2.88;;;11.00;99.90;;;;;;6126676;23;20024;-80
2023/01/04 09:53:30;;;;;;;7.93;3.25;;;11.00;99.90;;;;;;6150812;23;20013;-80
2023/01/04 09:56:04;;;;;;;7.05;3.40;;;11.00;99.90;;;;;;6151051;23;20017;-81
2023/01/04 09:58:34;;;;;;;7.70;4.15;;;11.00;99.90;;;;;;6150546;23;20364;-79
2023/01/04 10:01:01;;;;;;;8.52;4.22;;;11.10;99.90;;;;;;6150963;23;20092;-80
2023/01/04 10:03:40;;;;;;;11.05;4.50;;;11.10;99.90;;;;;;6150892;23;20013;-81
2023/01/04 10:06:11;;;;;;;10.18;4.07;;;11.10;99.90;;;;;;6150523;23;20317;-80
2023/01/04 10:08:37;;;;;;;9.57;4.50;;;11.20;99.90;;;;;;6152668;23;20068;-80
2023/01/04 10:11:28;;;;;;;13.38;4.85;;;11.10;99.90;;;;;;6126213;23;20009;-80
2023/01/04 10:14:04;;;;;;;13.15;4.82;;;11.10;99.90;;;;;;6125609;23;20013;-80
2023/01/04 10:16:39;;;;;;;13.35;5.18;;;11.20;99.90;;;;;;6150998;23;20025;-80
2023/01/04 10:19:19;;;;;;;12.13;4.10;;;11.20;99.90;;;;;;6150790;23;20009;-80
2023/01/04 10:22:00;;;;;;;14.23;4.65;;;11.20;99.90;;;;;;6152789;23;20018;-80
2023/01/04 10:24:37;;;;;;;14.20;4.38;;;11.10;99.90;;;;;;6151303;23;20021;-79
2023/01/04 10:27:29;;;;;;;17.77;5.55;;;11.20;99.90;;;;;;6152246;23;20009;-80
2023/01/04 10:30:16;;;;;;;19.23;5.07;;;11.20;99.90;;;;;;6105740;23;20017;-79
2023/01/04 10:32:48;;;;;;;15.82;5.00;;;11.20;99.90;;;;;;6152833;23;20051;-80
2023/01/04 10:35:23;;;;;;;20.00;5.35;;;11.30;99.90;;;;;;6150489;23;20349;-79
2023/01/04 10:37:57;;;;;;;24.77;5.80;;;11.30;99.90;;;;;;6150231;23;20387;-80
2023/01/04 10:40:25;;;;;;;25.50;5.63;;;11.30;99.90;;;;;;6150163;23;20105;-79
2023/01/04 10:43:36;;;;;;;22.23;6.07;;;11.30;99.90;;;;;;6149968;23;20009;-80
2023/01/04 10:46:08;;;;;;;24.40;6.38;;;11.30;99.90;;;;;;6151157;23;20360;-80
2023/01/04 10:48:55;;;;;;;27.98;6.35;;;11.30;99.90;;;;;;6150197;23;20009;-80
2023/01/04 10:51:34;;;;;;;34.42;6.90;;;11.40;99.90;;;;;;6152518;23;20013;-80
2023/01/04 10:54:16;;;;;;;30.10;6.72;;;11.30;99.90;;;;;;6127627;23;20040;-80
2023/01/04 10:56:56;;;;;;;32.40;6.35;;;11.40;99.90;;;;;;6154299;23;20010;-81
2023/01/04 10:59:45;;;;;;;35.47;7.00;;;11.40;99.90;;;;;;6152642;23;20018;-80
2023/01/04 11:02:23;;;;;;;28.77;6.63;;;11.40;99.90;;;;;;6136690;23;20084;-80
2023/01/04 11:05:04;;;;;;;31.38;7.18;;;11.40;99.90;;;;;;6128187;23;20444;-80
2023/01/04 11:08:07;;;;;;;33.92;7.50;;;11.50;99.90;;;;;;6152911;23;20019;-81
2023/01/04 11:10:51;;;;;;;35.77;8.23;;;11.40;99.90;;;;;;6150948;23;20017;-80
2023/01/04 11:13:16;;;;;;;34.03;6.95;;;11.50;99.90;;;;;;6154146;23;20340;-80
2023/01/04 11:15:44;;;;;;;37.63;7.88;;;11.60;99.90;;;;;;6154359;23;20053;-83
2023/01/04 11:18:12;;;;;;;33.83;6.88;;;11.60;99.90;;;;;;6128006;23;20316;-82
2023/01/04 11:20:38;;;;;;;37.20;7.60;;;11.60;99.90;;;;;;6154098;23;20013;-82
2023/01/04 11:23:15;;;;;;;42.08;8.52;;;11.70;99.90;;;;;;6151658;23;20095;-82
2023/01/04 11:25:52;;;;;;;42.65;8.57;;;11.70;99.90;;;;;;6153500;23;20021;-81
2023/01/04 11:28:41;;;;;;;36.47;8.05;;;11.70;99.90;;;;;;6152754;23;20017;-81
2023/01/04 11:31:07;;;;;;;36.55;7.20;;;11.70;99.90;;;;;;6152267;23;20068;-81
2023/01/04 11:33:56;;;;;;;42.05;8.23;;;11.70;99.90;;;;;;6127524;23;20018;-81
2023/01/04 11:36:43;;;;;;;41.65;8.20;;;11.70;99.90;;;;;;6127773;23;20014;-81
2023/01/04 11:39:19;;;;;;;39.38;7.95;;;11.70;99.90;;;;;;6151569;23;20013;-81
2023/01/04 11:42:03;;;;;;;40.35;7.40;;;11.70;99.90;;;;;;6127807;23;20014;-82
2023/01/04 11:44:29;;;;;;;;;;;11.70;99.90;;;;;;6128439;23;20016;-82
2023/01/04 11:47:18;;;;;;;40.22;7.57;;;11.70;99.90;;;;;;6152691;23;20247;-82
2023/01/04 11:49:44;;;;;;;26.75;6.82;;;11.70;99.90;;;;;;6152875;23;20021;-82
2023/01/04 11:52:37;;;;;;;35.28;7.13;;;11.80;99.90;;;;;;6152931;23;20078;-82
2023/01/04 11:55:23;;;;;;;30.33;6.83;;;11.80;99.90;;;;;;6126576;23;20028;-82
2023/01/04 11:58:10;;;;;;;38.60;6.85;;;11.80;99.90;;;;;;6127872;23;20018;-81
2023/01/04 12:00:37;;;;;;;27.33;6.88;;;11.80;99.90;;;;;;6154289;23;20047;-81
2023/01/04 12:03:25;;;;;;;36.72;7.55;;;11.80;99.90;;;;;;6152557;23;20088;-81
2023/01/04 12:05:51;;;;;;;33.50;6.35;;;11.80;99.90;;;;;;6153168;23;20013;-81
2023/01/04 12:08:30;;;;;;;36.78;7.15;;;11.80;99.90;;;;;;6152462;23;20014;-82
2023/01/04 12:10:57;;;;;;;36.00;6.47;;;11.80;99.90;;;;;;6153594;23;20032;-81
2023/01/04 12:13:23;;;;;;;30.45;5.95;;;11.80;99.90;;;;;;6152628;23;20009;-81
2023/01/04 12:16:04;;;;;;;28.40;7.00;;;11.80;99.90;;;;;;6154582;23;20076;-82
2023/01/04 12:18:38;;;;;;;25.05;5.50;;;11.80;99.90;;;;;;6151165;23;20041;-81
2023/01/04 12:21:03;;;;;;;24.27;5.20;;;11.80;99.90;;;;;;6126996;23;20009;-82
2023/01/04 12:23:30;;;;;;;22.17;5.35;;;11.80;99.90;;;;;;6151225;23;20017;-81
2023/01/04 12:25:56;;;;;;;19.15;4.65;;;11.80;99.90;;;;;;6150594;23;20064;-82
2023/01/04 12:28:41;;;;;;;23.52;4.82;;;11.90;99.90;;;;;;6152631;23;20024;-82
2023/01/04 12:31:36;;;;;;;26.42;5.50;;;11.80;99.90;;;;;;6154570;23;20021;-81
2023/01/04 12:34:21;;;;;;;28.85;5.22;;;11.80;99.90;;;;;;6114961;23;20020;-82
2023/01/04 12:36:49;;;;;;;18.75;5.40;;;11.80;99.90;;;;;;6152118;23;20009;-81
2023/01/04 12:39:15;;;;;;;19.38;4.53;;;11.80;99.90;;;;;;6128203;23;20011;-82
2023/01/04 12:41:40;;;;;;;20.73;4.15;;;11.80;99.90;;;;;;6152512;23;20092;-81
2023/01/04 12:44:45;;;;;;;20.02;4.25;;;11.80;99.90;;;;;;6128364;23;20021;-81
2023/01/04 12:50:03;;;;;;;17.48;4.63;;;11.80;99.90;;;;;;6152591;23;20021;-81
2023/01/04 12:52:28;;;;;;;14.63;3.63;;;11.80;99.90;;;;;;6151965;23;20009;-80
2023/01/04 12:55:04;;;;;;;13.68;3.28;;;11.80;99.90;;;;;;6127785;23;20014;-82
2023/01/04 12:57:37;;;;;;;11.85;3.17;;;11.80;99.90;;;;;;6127326;23;20009;-83
2023/01/04 13:00:13;;;;;;;14.85;2.85;;;11.80;99.90;;;;;;6152167;23;20018;-83
2023/01/04 13:02:49;;;;;;;13.00;3.25;;;11.80;99.90;;;;;;6153668;23;20055;-83
2023/01/04 13:05:17;;;;;;;11.18;2.80;;;11.80;99.90;;;;;;6151797;23;20032;-83
2023/01/04 13:07:55;;;;;;;11.07;2.83;;;11.70;99.90;;;;;;6150970;23;20013;-83
2023/01/04 13:10:35;;;;;;;15.80;3.38;;;11.80;99.90;;;;;;6127076;23;20024;-83
2023/01/04 13:13:08;;;;;;;12.88;3.88;;;11.80;99.90;;;;;;6151418;23;20100;-83
2023/01/04 13:15:47;;;;;;;17.50;4.03;;;11.70;99.90;;;;;;6151982;23;20075;-83
2023/01/04 13:18:34;;;;;;;14.05;3.47;;;11.80;99.90;;;;;;6154028;23;20060;-83
2023/01/04 13:21:22;;;;;;;17.77;4.10;;;11.70;99.90;;;;;;6126966;23;20014;-83
2023/01/04 13:23:54;;;;;;;21.13;4.63;;;11.80;99.90;;;;;;6151508;23;20013;-83
2023/01/04 13:26:26;;;;;;;20.10;4.55;;;11.70;99.90;;;;;;6151464;23;20017;-83
2023/01/04 13:29:21;;;;;;;19.50;4.07;;;11.70;99.90;;;;;;6151973;23;20021;-83
2023/01/04 13:31:57;;;;;;;18.67;4.90;;;11.70;99.90;;;;;;6151957;23;20067;-82
2023/01/04 13:34:33;;;;;;;20.30;4.97;;;11.70;99.90;;;;;;6153420;23;20013;-82
2023/01/04 13:37:10;;;;;;;19.58;5.03;;;11.70;99.90;;;;;;6150788;23;20072;-83
2023/01/04 13:39:48;;;;;;;25.90;5.35;;;11.70;99.90;;;;;;6151854;23;20025;-83
2023/01/04 13:42:19;;;;;;;33.65;5.88;;;11.70;99.90;;;;;;6151396;23;20479;-82
2023/01/04 13:45:05;;;;;;;27.98;6.20;;;11.70;99.90;;;;;;6127061;23;20084;-83
2023/01/04 13:47:36;;;;;;;29.52;5.47;;;11.70;99.90;;;;;;6151651;23;20436;-83
2023/01/04 13:50:02;;;;;;;26.00;5.40;;;11.70;99.90;;;;;;6150756;23;20064;-83
2023/01/04 13:52:28;;;;;;;31.98;6.15;;;11.70;99.90;;;;;;6151597;23;20306;-83